Terminal Aerodrome Forecast
Issued by NWS

Home | Current Version | Previous Version | Text Only | Print | Product List | Glossary On
Versions: 1 2 3 4 5 6 7 8 9 10 11 12 13
000
FTUS44 KJAN 301120
TAFGTR
TAF
KGTR 301120Z 3012/3112 13008KT P6SM VCSH SCT025 BKN035
     FM301600 10007KT P6SM VCTS SCT040CB BKN070
     FM302000 08008KT P6SM BKN080=

USA.gov is the U.S. government's official web portal to all federal, state and local government web resources and services.